Time;durP1;ratioP1;P1;durP2;ratioP2;P2;SDS_P1;SDS_P2;PMS_P1;PMS_P2;Temp;Humidity;BMP_temperature;BMP_pressure;BME280_temperature;BME280_humidity;BME280_pressure;Samples;Min_cycle;Max_cycle;Signal;HPM_P1;HPM_P2
2021/06/01 00:01:23;;;;;;;8.00;3.97;;;14.30;59.60;;;;;;5076787;28;20205;-70
2021/06/01 00:03:49;;;;;;;6.67;4.07;;;14.20;59.70;;;;;;5076008;28;20283;-70
2021/06/01 00:06:18;;;;;;;7.93;4.00;;;14.30;60.00;;;;;;5073802;28;20235;-70
2021/06/01 00:08:45;;;;;;;7.93;4.10;;;14.20;60.00;;;;;;5074772;28;20308;-70
2021/06/01 00:11:13;;;;;;;6.33;3.80;;;14.20;60.20;;;;;;5074223;28;20201;-70
2021/06/01 00:13:41;;;;;;;6.87;4.30;;;14.20;60.20;;;;;;5067594;28;20225;-70
2021/06/01 00:16:08;;;;;;;7.70;4.10;;;14.20;60.50;;;;;;5070199;28;20328;-70
2021/06/01 00:18:35;;;;;;;8.80;4.43;;;14.10;60.50;;;;;;5082347;28;20238;-71
2021/06/01 00:21:01;;;;;;;8.63;4.33;;;14.10;60.60;;;;;;5075068;28;20213;-71
2021/06/01 00:23:29;;;;;;;6.40;4.20;;;14.10;60.70;;;;;;5075877;28;20296;-70
2021/06/01 00:25:55;;;;;;;6.13;4.20;;;14.10;61.10;;;;;;5069914;28;20300;-70
2021/06/01 00:28:22;;;;;;;11.03;4.73;;;14.00;61.40;;;;;;5062506;28;20194;-70
2021/06/01 00:30:48;;;;;;;9.97;4.80;;;14.00;61.50;;;;;;5068626;28;20220;-70
2021/06/01 00:33:15;;;;;;;7.70;4.03;;;14.00;61.80;;;;;;5081282;28;20208;-71
2021/06/01 00:35:41;;;;;;;12.40;4.33;;;14.00;62.10;;;;;;5082987;28;20239;-71
2021/06/01 00:38:07;;;;;;;9.17;4.60;;;14.00;62.40;;;;;;5081964;28;20224;-70
2021/06/01 00:40:35;;;;;;;7.93;4.80;;;13.90;62.90;;;;;;5072464;28;20296;-69
2021/06/01 00:43:02;;;;;;;9.57;4.23;;;13.90;63.20;;;;;;5067283;28;20209;-74
2021/06/01 00:45:28;;;;;;;13.80;4.73;;;13.80;63.40;;;;;;5070292;28;20226;-71
2021/06/01 00:47:56;;;;;;;8.20;4.80;;;13.80;63.80;;;;;;5062427;28;20233;-70
2021/06/01 00:50:25;;;;;;;9.13;4.83;;;13.60;63.90;;;;;;5069532;28;20197;-70
2021/06/01 00:52:52;;;;;;;9.43;5.07;;;13.60;64.30;;;;;;5071151;28;20231;-69
2021/06/01 00:55:19;;;;;;;6.47;4.53;;;13.60;64.80;;;;;;5071617;28;20205;-69
2021/06/01 00:57:50;;;;;;;10.40;4.77;;;13.60;65.10;;;;;;5070018;28;20236;-69
2021/06/01 01:00:38;;;;;;;9.83;4.90;;;13.60;65.50;;;;;;5071385;28;20288;-70
2021/06/01 01:03:05;;;;;;;8.13;4.70;;;13.60;65.70;;;;;;5070490;28;20224;-69
2021/06/01 01:05:35;;;;;;;7.47;4.40;;;13.60;65.90;;;;;;5083337;28;20224;-70
2021/06/01 01:08:08;;;;;;;11.70;4.80;;;13.50;66.00;;;;;;5077585;28;20662;-69
2021/06/01 01:10:36;;;;;;;14.17;5.47;;;13.50;66.40;;;;;;5078687;28;20208;-69
2021/06/01 01:13:06;;;;;;;11.80;5.80;;;13.50;66.60;;;;;;5081135;28;20262;-70
2021/06/01 01:15:35;;;;;;;11.43;5.30;;;13.40;66.70;;;;;;5074393;28;20206;-69
2021/06/01 01:18:05;;;;;;;7.37;4.57;;;13.40;67.10;;;;;;5073044;28;20235;-70
2021/06/01 01:20:37;;;;;;;9.57;4.90;;;13.40;67.40;;;;;;5079574;28;20200;-70
2021/06/01 01:23:08;;;;;;;7.87;5.40;;;13.40;67.60;;;;;;5071408;28;20612;-71
2021/06/01 01:25:40;;;;;;;9.23;5.70;;;13.40;67.90;;;;;;5071417;28;20289;-70
2021/06/01 01:28:22;;;;;;;10.67;6.00;;;13.40;67.90;;;;;;5078944;28;20564;-70
2021/06/01 01:30:55;;;;;;;7.60;5.30;;;13.40;68.50;;;;;;5074662;28;20224;-70
2021/06/01 01:33:26;;;;;;;11.70;6.10;;;13.30;68.70;;;;;;5076972;28;20239;-69
2021/06/01 01:35:55;;;;;;;11.17;5.00;;;13.30;69.10;;;;;;5081414;28;20205;-69
2021/06/01 01:38:23;;;;;;;8.83;5.43;;;13.30;69.40;;;;;;5073224;28;20370;-70
2021/06/01 01:40:51;;;;;;;9.97;6.20;;;13.20;69.70;;;;;;5081569;28;20295;-70
2021/06/01 01:43:20;;;;;;;10.07;6.23;;;13.10;70.00;;;;;;5075601;28;20221;-69
2021/06/01 01:45:50;;;;;;;9.30;5.57;;;13.10;70.30;;;;;;5072743;28;20208;-70
2021/06/01 01:51:15;;;;;;;14.50;5.83;;;13.10;71.40;;;;;;5071506;28;20249;-70
2021/06/01 01:53:50;;;;;;;9.97;6.00;;;13.10;71.80;;;;;;5077002;28;20196;-70
2021/06/01 01:56:18;;;;;;;13.63;5.90;;;13.10;72.10;;;;;;5086726;28;20296;-69
2021/06/01 01:58:46;;;;;;;10.00;5.40;;;13.20;72.60;;;;;;5071584;28;20533;-69
2021/06/01 02:01:12;;;;;;;13.43;6.37;;;13.20;72.90;;;;;;5077331;28;20211;-70
2021/06/01 02:03:41;;;;;;;10.63;5.83;;;13.20;72.90;;;;;;5081576;28;20197;-70
2021/06/01 02:06:10;;;;;;;12.43;6.27;;;13.30;73.20;;;;;;5075450;28;20338;-70
2021/06/01 02:08:39;;;;;;;12.30;6.83;;;13.30;73.30;;;;;;5077391;28;20289;-71
2021/06/01 02:11:06;;;;;;;10.03;6.27;;;13.20;73.40;;;;;;5070795;28;20241;-70
2021/06/01 02:13:42;;;;;;;9.90;6.70;;;13.20;73.70;;;;;;5082644;28;20229;-71
2021/06/01 02:16:08;;;;;;;14.20;7.10;;;13.20;74.20;;;;;;5083359;28;20410;-69
2021/06/01 02:18:35;;;;;;;9.63;6.47;;;13.20;74.70;;;;;;5078516;28;20221;-69
2021/06/01 02:21:04;;;;;;;10.77;7.00;;;13.10;74.90;;;;;;5075797;28;20220;-70
2021/06/01 02:23:48;;;;;;;12.20;7.23;;;13.10;75.10;;;;;;5076451;28;20209;-69
2021/06/01 02:26:27;;;;;;;13.47;7.13;;;13.10;76.10;;;;;;5085769;28;20201;-70
2021/06/01 02:28:57;;;;;;;11.73;6.80;;;13.10;75.80;;;;;;5077203;28;20288;-69
2021/06/01 02:31:29;;;;;;;9.50;6.90;;;13.10;76.00;;;;;;5084000;28;20236;-70
2021/06/01 02:33:57;;;;;;;8.80;6.40;;;13.10;76.50;;;;;;5084097;28;20245;-70
2021/06/01 02:36:25;;;;;;;9.47;6.80;;;13.20;76.80;;;;;;5082154;28;20292;-69
2021/06/01 02:38:55;;;;;;;12.13;7.23;;;13.20;77.00;;;;;;5078802;28;20645;-71
2021/06/01 02:41:22;;;;;;;10.47;7.23;;;13.30;77.70;;;;;;5084864;28;20696;-69
2021/06/01 02:43:48;;;;;;;10.63;7.17;;;13.30;77.60;;;;;;5073503;28;20708;-71
2021/06/01 02:46:16;;;;;;;11.27;6.90;;;13.40;77.90;;;;;;5081815;28;20204;-69
2021/06/01 02:48:43;;;;;;;12.27;6.97;;;13.40;77.90;;;;;;5072137;28;20205;-70
2021/06/01 02:51:17;;;;;;;10.83;6.40;;;13.40;78.00;;;;;;5070302;28;20654;-69
2021/06/01 02:53:46;;;;;;;11.17;7.30;;;13.50;78.40;;;;;;5074795;28;20662;-71
2021/06/01 02:56:14;;;;;;;17.33;7.53;;;13.50;78.40;;;;;;5070666;28;20288;-70
2021/06/01 02:58:41;;;;;;;11.60;6.97;;;13.60;78.60;;;;;;5081267;28;21003;-71
2021/06/01 03:01:11;;;;;;;10.20;6.50;;;13.60;79.00;;;;;;5080831;28;20209;-73
2021/06/01 03:03:42;;;;;;;11.37;7.20;;;13.60;79.30;;;;;;5076027;28;20755;-70
2021/06/01 03:06:09;;;;;;;11.90;6.43;;;13.60;79.60;;;;;;5091426;28;20204;-70
2021/06/01 03:08:35;;;;;;;12.20;6.70;;;13.70;80.10;;;;;;5078915;28;20658;-70
2021/06/01 03:11:04;;;;;;;16.70;7.23;;;13.70;80.40;;;;;;5072643;28;20650;-70
2021/06/01 03:13:32;;;;;;;12.57;6.60;;;13.80;80.70;;;;;;5087210;28;20228;-71
2021/06/01 03:15:59;;;;;;;14.83;7.40;;;13.80;80.90;;;;;;5081773;28;20226;-70
2021/06/01 03:18:25;;;;;;;15.10;6.93;;;13.90;81.00;;;;;;5081168;28;20236;-70
2021/06/01 03:20:52;;;;;;;12.67;7.50;;;13.90;81.10;;;;;;5079211;28;20209;-70
2021/06/01 03:23:19;;;;;;;13.27;7.03;;;13.90;81.00;;;;;;5075496;28;20216;-70
2021/06/01 03:25:46;;;;;;;12.47;6.60;;;13.90;81.10;;;;;;5084097;28;20277;-71
2021/06/01 03:28:13;;;;;;;14.37;7.47;;;13.90;81.40;;;;;;5072239;28;20208;-70
2021/06/01 03:30:41;;;;;;;13.07;7.27;;;13.90;82.20;;;;;;5090451;28;20207;-70
2021/06/01 03:33:08;;;;;;;13.00;8.07;;;13.90;81.90;;;;;;5090421;28;20247;-70
2021/06/01 03:35:34;;;;;;;12.50;6.53;;;13.90;82.20;;;;;;5076233;28;20764;-70
2021/06/01 03:38:02;;;;;;;12.23;7.43;;;14.00;83.00;;;;;;5073250;28;20594;-69
2021/06/01 03:40:28;;;;;;;14.43;7.50;;;14.00;83.40;;;;;;5072807;28;20200;-69
2021/06/01 03:42:55;;;;;;;10.63;6.90;;;14.10;83.40;;;;;;5079241;28;20212;-70
2021/06/01 03:45:23;;;;;;;12.80;7.70;;;14.10;83.30;;;;;;5077423;28;20212;-70
2021/06/01 03:47:51;;;;;;;12.87;7.63;;;14.10;83.30;;;;;;5080467;28;20284;-70
2021/06/01 03:50:18;;;;;;;19.50;7.87;;;14.20;83.50;;;;;;5076705;28;20520;-71
2021/06/01 03:52:44;;;;;;;16.33;8.23;;;14.20;83.20;;;;;;5073705;28;20295;-70
2021/06/01 03:55:12;;;;;;;9.93;7.00;;;14.30;83.30;;;;;;5083359;28;20244;-69
2021/06/01 03:57:39;;;;;;;11.87;7.20;;;14.40;83.30;;;;;;5072031;28;20268;-70
2021/06/01 04:00:07;;;;;;;10.57;6.83;;;14.40;83.00;;;;;;5073908;28;20714;-71
2021/06/01 04:02:34;;;;;;;12.23;7.20;;;14.50;82.90;;;;;;5073065;28;20638;-69
2021/06/01 04:05:02;;;;;;;10.77;7.33;;;14.50;82.50;;;;;;5075712;28;20847;-70
2021/06/01 04:07:28;;;;;;;15.73;7.80;;;14.60;82.90;;;;;;5079130;28;20205;-71
2021/06/01 04:09:55;;;;;;;17.50;7.80;;;14.60;82.40;;;;;;5084509;28;20201;-70
2021/06/01 04:12:21;;;;;;;14.10;8.73;;;14.60;82.40;;;;;;5076231;28;20209;-71
2021/06/01 04:14:48;;;;;;;13.43;7.77;;;14.60;82.50;;;;;;5075450;28;20285;-70
2021/06/01 04:17:14;;;;;;;11.90;7.30;;;14.60;82.60;;;;;;5082525;28;20583;-70
2021/06/01 04:19:42;;;;;;;14.70;8.23;;;14.60;82.40;;;;;;5073145;28;20713;-71
2021/06/01 04:22:10;;;;;;;18.20;8.37;;;14.70;82.60;;;;;;5079736;28;20216;-71
2021/06/01 04:24:36;;;;;;;15.30;7.07;;;14.70;82.50;;;;;;5079243;28;20639;-70
2021/06/01 04:27:03;;;;;;;16.13;8.20;;;14.80;82.40;;;;;;5082119;28;20213;-70
2021/06/01 04:29:30;;;;;;;16.67;7.93;;;14.80;82.40;;;;;;5074037;28;20211;-71
2021/06/01 04:31:57;;;;;;;16.20;8.63;;;14.90;82.40;;;;;;5077400;28;20224;-71
2021/06/01 04:34:23;;;;;;;14.57;8.63;;;14.90;82.40;;;;;;5086025;28;20562;-70
2021/06/01 04:36:50;;;;;;;12.17;7.47;;;14.90;82.20;;;;;;5071486;28;20642;-70
2021/06/01 04:39:17;;;;;;;16.20;7.33;;;15.00;82.00;;;;;;5072630;28;20205;-70
2021/06/01 04:41:44;;;;;;;15.17;8.47;;;15.10;81.70;;;;;;5076366;28;20643;-70
2021/06/01 04:44:10;;;;;;;13.13;7.97;;;15.10;81.20;;;;;;5071453;28;20205;-70
2021/06/01 04:46:37;;;;;;;14.17;7.17;;;15.10;80.90;;;;;;5080547;28;20251;-70
2021/06/01 04:49:03;;;;;;;18.33;7.97;;;15.10;80.70;;;;;;5079925;28;20602;-70
2021/06/01 04:51:30;;;;;;;17.87;8.60;;;15.10;80.20;;;;;;5082938;28;20251;-70
2021/06/01 04:53:58;;;;;;;14.97;8.10;;;15.10;80.10;;;;;;5071435;28;20202;-71
2021/06/01 04:56:28;;;;;;;17.63;8.10;;;15.10;80.20;;;;;;5077218;28;20296;-70
2021/06/01 04:58:55;;;;;;;14.00;8.13;;;15.10;80.10;;;;;;5070020;28;20209;-70
2021/06/01 05:01:22;;;;;;;13.13;8.20;;;15.10;80.20;;;;;;5074695;28;20209;-71
2021/06/01 05:03:48;;;;;;;13.67;7.63;;;15.10;80.40;;;;;;5078268;28;20209;-71
2021/06/01 05:06:16;;;;;;;20.23;7.93;;;15.10;80.40;;;;;;5083132;28;20649;-71
2021/06/01 05:08:43;;;;;;;11.80;7.60;;;15.10;80.10;;;;;;5077909;28;20600;-71
2021/06/01 05:11:09;;;;;;;17.43;8.10;;;15.10;80.10;;;;;;5073739;28;20201;-70
2021/06/01 05:13:37;;;;;;;15.60;8.30;;;15.10;80.00;;;;;;5076213;28;20231;-70
2021/06/01 05:16:04;;;;;;;14.67;8.17;;;15.20;80.20;;;;;;5087337;28;20205;-70
2021/06/01 05:18:31;;;;;;;14.10;7.67;;;15.20;80.10;;;;;;5073366;28;20654;-70
2021/06/01 05:20:57;;;;;;;10.03;7.17;;;15.20;79.60;;;;;;5083197;28;20293;-70
2021/06/01 05:23:23;;;;;;;17.17;8.20;;;15.20;79.00;;;;;;5072607;28;20212;-70
2021/06/01 05:25:50;;;;;;;12.37;8.10;;;15.20;78.90;;;;;;5076695;28;20296;-70
2021/06/01 05:28:16;;;;;;;12.37;7.50;;;15.30;79.70;;;;;;5078505;28;20197;-70
2021/06/01 05:30:51;;;;;;;15.03;7.40;;;15.40;79.80;;;;;;5085922;28;20860;-70
2021/06/01 05:33:19;;;;;;;14.13;7.60;;;15.50;80.00;;;;;;5076845;28;20203;-70
2021/06/01 05:35:52;;;;;;;16.03;7.77;;;15.60;80.00;;;;;;5085862;28;20206;-70
2021/06/01 05:38:19;;;;;;;13.53;7.90;;;15.70;79.70;;;;;;5077080;28;20223;-70
2021/06/01 05:40:45;;;;;;;13.33;7.90;;;15.80;79.50;;;;;;5083260;28;20631;-69
2021/06/01 05:43:11;;;;;;;14.03;8.00;;;15.90;79.40;;;;;;5074828;28;20268;-70
2021/06/01 05:45:38;;;;;;;15.30;7.33;;;16.00;79.00;;;;;;5085420;28;20228;-70
2021/06/01 05:48:07;;;;;;;17.57;7.43;;;16.10;78.70;;;;;;5078963;28;20263;-70
2021/06/01 05:50:33;;;;;;;13.63;7.13;;;16.10;78.10;;;;;;5078484;28;20209;-71
2021/06/01 05:53:00;;;;;;;12.80;7.67;;;16.20;77.30;;;;;;5081779;28;20227;-71
2021/06/01 05:55:27;;;;;;;10.87;7.20;;;16.30;77.40;;;;;;5082821;28;20658;-70
2021/06/01 05:57:53;;;;;;;13.67;7.63;;;16.30;77.20;;;;;;5085065;28;20634;-70
2021/06/01 06:00:21;;;;;;;11.97;7.40;;;16.30;77.30;;;;;;5076313;28;20205;-70
2021/06/01 06:02:48;;;;;;;14.37;7.13;;;16.30;77.30;;;;;;5075406;28;20208;-71
2021/06/01 06:05:16;;;;;;;14.93;7.80;;;16.30;77.20;;;;;;5072818;28;20197;-71
2021/06/01 06:07:43;;;;;;;12.90;7.20;;;16.40;77.30;;;;;;5079910;28;20201;-71
2021/06/01 06:10:11;;;;;;;11.07;6.43;;;16.40;77.30;;;;;;5071583;28;20209;-73
2021/06/01 06:12:37;;;;;;;11.40;6.77;;;16.50;76.50;;;;;;5074574;28;20209;-70
2021/06/01 06:15:05;;;;;;;10.37;6.50;;;16.50;76.40;;;;;;5077248;28;20319;-70
2021/06/01 06:17:43;;;;;;;12.97;6.33;;;16.70;75.40;;;;;;5075506;28;20231;-72
2021/06/01 06:20:13;;;;;;;9.43;5.87;;;16.80;74.20;;;;;;5069005;28;20209;-70
2021/06/01 06:22:41;;;;;;;10.90;5.83;;;17.00;73.50;;;;;;5074157;28;20288;-73
2021/06/01 06:25:10;;;;;;;15.70;6.37;;;17.20;72.50;;;;;;5075847;28;20219;-72
2021/06/01 06:27:37;;;;;;;11.23;6.23;;;17.30;72.10;;;;;;5073696;28;20620;-72
2021/06/01 06:30:04;;;;;;;12.33;6.63;;;17.50;72.30;;;;;;5071489;28;20638;-73
2021/06/01 06:32:31;;;;;;;12.30;7.30;;;17.70;71.90;;;;;;5068777;28;20301;-72
2021/06/01 06:34:57;;;;;;;20.20;7.70;;;17.80;72.00;;;;;;5065720;28;20217;-73
2021/06/01 06:37:23;;;;;;;17.40;7.03;;;17.80;72.30;;;;;;5070162;28;20225;-70
2021/06/01 06:39:51;;;;;;;15.00;6.37;;;17.90;71.60;;;;;;5076598;28;20240;-71
2021/06/01 06:42:18;;;;;;;17.07;7.00;;;18.00;71.00;;;;;;5074101;28;20236;-70
2021/06/01 06:44:49;;;;;;;14.23;6.23;;;18.10;70.10;;;;;;5068669;28;20208;-71
2021/06/01 06:47:27;;;;;;;12.33;5.77;;;18.20;69.90;;;;;;5072909;28;20561;-74
2021/06/01 06:49:54;;;;;;;20.03;5.93;;;18.30;68.90;;;;;;5069957;28;20307;-71
2021/06/01 06:52:21;;;;;;;12.70;5.43;;;18.40;68.10;;;;;;5069529;28;20215;-70
2021/06/01 06:54:48;;;;;;;10.90;5.87;;;18.60;67.40;;;;;;5075132;28;20207;-72
2021/06/01 06:57:16;;;;;;;14.43;6.20;;;18.60;67.20;;;;;;5074850;28;20233;-68
2021/06/01 06:59:43;;;;;;;13.80;5.40;;;18.70;66.70;;;;;;5074299;28;20208;-72
2021/06/01 07:02:10;;;;;;;20.10;5.23;;;18.80;66.30;;;;;;5078373;28;20228;-71
2021/06/01 07:04:36;;;;;;;10.63;5.23;;;18.80;65.70;;;;;;5072015;28;20288;-71
2021/06/01 07:07:04;;;;;;;9.30;5.18;;;18.90;65.60;;;;;;5069391;28;20201;-69
2021/06/01 07:09:30;;;;;;;17.47;5.10;;;18.90;65.70;;;;;;5074093;28;20208;-72
2021/06/01 07:11:56;;;;;;;8.65;4.70;;;19.10;66.00;;;;;;5070620;28;20228;-72
2021/06/01 07:14:44;;;;;;;10.07;4.90;;;19.20;65.50;;;;;;5072292;28;20264;-69
2021/06/01 07:17:10;;;;;;;9.90;3.83;;;19.40;64.20;;;;;;5068646;28;20209;-70
2021/06/01 07:19:37;;;;;;;10.40;4.18;;;19.60;63.30;;;;;;5074812;28;20205;-67
2021/06/01 07:22:04;;;;;;;8.02;4.18;;;19.70;62.40;;;;;;5070317;28;20718;-70
2021/06/01 07:24:30;;;;;;;11.80;4.47;;;19.80;62.00;;;;;;5074014;28;20209;-72
2021/06/01 07:26:57;;;;;;;8.48;4.03;;;19.90;61.70;;;;;;5074152;28;20201;-71
2021/06/01 07:29:23;;;;;;;7.07;3.95;;;20.00;61.40;;;;;;5074510;28;20301;-70
2021/06/01 07:31:51;;;;;;;5.65;3.60;;;20.10;60.80;;;;;;5074254;28;20202;-72
2021/06/01 07:34:18;;;;;;;7.75;4.38;;;20.30;60.50;;;;;;5073756;28;20296;-70
2021/06/01 07:36:44;;;;;;;7.70;4.40;;;20.40;59.80;;;;;;5071378;28;20206;-70
2021/06/01 07:39:11;;;;;;;5.65;3.97;;;20.40;59.40;;;;;;5070278;28;20371;-69
2021/06/01 07:41:37;;;;;;;10.20;3.90;;;20.40;59.30;;;;;;5067962;28;20730;-70
2021/06/01 07:44:06;;;;;;;9.32;5.38;;;20.50;59.40;;;;;;5062037;28;20237;-72
2021/06/01 07:46:33;;;;;;;10.50;6.00;;;20.60;59.30;;;;;;5072059;28;20202;-73
2021/06/01 07:49:01;;;;;;;5.43;4.38;;;20.60;58.60;;;;;;5077493;28;20213;-73
2021/06/01 07:51:31;;;;;;;5.13;3.67;;;20.70;58.90;;;;;;5069403;28;20208;-72
2021/06/01 07:54:03;;;;;;;7.18;3.97;;;20.90;58.90;;;;;;5070018;28;20288;-70
2021/06/01 07:56:30;;;;;;;6.82;3.30;;;21.00;58.20;;;;;;5075401;28;20216;-74
2021/06/01 07:58:56;;;;;;;6.38;3.17;;;21.00;57.70;;;;;;5067349;28;20700;-71
2021/06/01 08:01:23;;;;;;;3.72;2.80;;;21.10;57.20;;;;;;5067601;28;20205;-73
2021/06/01 08:03:49;;;;;;;4.95;3.05;;;21.20;56.50;;;;;;5069012;28;20218;-70
2021/06/01 08:06:17;;;;;;;6.80;3.67;;;21.40;55.50;;;;;;5070618;28;20202;-69
2021/06/01 08:08:44;;;;;;;6.03;3.42;;;21.70;55.60;;;;;;5073016;28;20287;-70
2021/06/01 08:11:10;;;;;;;6.85;3.50;;;21.90;56.00;;;;;;5069226;28;20286;-71
2021/06/01 08:13:36;;;;;;;3.78;3.08;;;22.10;55.90;;;;;;5070391;28;20253;-71
2021/06/01 08:16:03;;;;;;;5.28;2.88;;;22.30;55.60;;;;;;5071364;28;20305;-70
2021/06/01 08:18:33;;;;;;;5.78;2.70;;;22.50;54.70;;;;;;5067136;28;20308;-72
2021/06/01 08:21:04;;;;;;;6.40;2.70;;;22.50;53.60;;;;;;5063817;28;20676;-69
2021/06/01 08:23:32;;;;;;;2.60;1.60;;;22.40;52.70;;;;;;5069535;28;20286;-69
2021/06/01 08:25:59;;;;;;;4.28;1.70;;;22.30;51.00;;;;;;5061439;28;20259;-69
2021/06/01 08:28:26;;;;;;;4.38;1.90;;;22.10;49.80;;;;;;5066453;28;20861;-69
2021/06/01 08:30:52;;;;;;;4.55;2.70;;;22.00;49.70;;;;;;5074869;28;20759;-69
2021/06/01 08:33:19;;;;;;;2.72;1.63;;;22.00;49.80;;;;;;5079913;28;20657;-69
2021/06/01 08:35:45;;;;;;;21.50;2.67;;;21.90;49.60;;;;;;5078517;28;20223;-72
2021/06/01 08:38:14;;;;;;;4.57;2.70;;;21.70;48.90;;;;;;5071296;28;20660;-70
2021/06/01 08:40:42;;;;;;;6.28;2.35;;;21.70;50.30;;;;;;5075291;28;20205;-71
2021/06/01 08:43:20;;;;;;;2.05;1.60;;;21.70;51.30;;;;;;5079295;28;20217;-71
2021/06/01 08:45:52;;;;;;;4.63;2.30;;;21.50;50.50;;;;;;5063865;28;20235;-71
2021/06/01 08:48:19;;;;;;;3.33;1.92;;;21.30;49.60;;;;;;5079057;28;20250;-71
2021/06/01 08:50:50;;;;;;;5.18;1.98;;;21.10;50.80;;;;;;5085260;28;20287;-70
2021/06/01 08:53:17;;;;;;;4.30;2.58;;;20.90;50.70;;;;;;5076403;28;20594;-71
2021/06/01 08:55:46;;;;;;;2.60;1.75;;;20.80;51.10;;;;;;5077441;28;20345;-72
2021/06/01 08:58:14;;;;;;;3.35;2.05;;;20.80;51.30;;;;;;5071408;28;20327;-71
2021/06/01 09:00:40;;;;;;;4.35;1.90;;;20.70;50.90;;;;;;5073564;28;20578;-70
2021/06/01 09:03:08;;;;;;;3.13;1.90;;;20.60;50.80;;;;;;5079086;28;20266;-71
2021/06/01 09:05:35;;;;;;;4.05;2.92;;;20.50;50.80;;;;;;5074526;28;20209;-73
2021/06/01 09:08:04;;;;;;;3.70;2.50;;;20.60;50.80;;;;;;5079104;28;20657;-72
2021/06/01 09:10:41;;;;;;;4.43;2.20;;;20.70;50.80;;;;;;5079822;28;20296;-70
2021/06/01 09:21:35;;;;;;;2.72;1.33;;;21.50;50.10;;;;;;5075438;28;20200;-69
2021/06/01 09:24:04;;;;;;;3.22;1.52;;;21.70;49.50;;;;;;5068593;28;20211;-69
2021/06/01 09:29:31;;;;;;;3.20;1.17;;;22.20;48.40;;;;;;5067036;28;20208;-69
2021/06/01 09:32:06;;;;;;;2.58;0.95;;;22.60;46.90;;;;;;5077756;28;20604;-70
2021/06/01 09:34:38;;;;;;;3.17;1.77;;;22.70;44.80;;;;;;5074124;28;20613;-69
2021/06/01 09:37:16;;;;;;;4.75;1.80;;;22.90;44.30;;;;;;5078980;28;20223;-70
2021/06/01 09:39:43;;;;;;;3.40;1.58;;;23.20;44.60;;;;;;5066340;28;20296;-70
2021/06/01 09:42:24;;;;;;;3.25;1.75;;;23.30;45.10;;;;;;5064551;28;20727;-69
2021/06/01 09:45:03;;;;;;;5.43;2.17;;;23.20;44.50;;;;;;5070030;28;20292;-69
2021/06/01 09:47:48;;;;;;;2.75;1.73;;;23.10;44.60;;;;;;5074576;28;20766;-69
2021/06/01 09:50:22;;;;;;;2.08;1.70;;;22.90;45.20;;;;;;5068524;28;20583;-71
2021/06/01 09:52:52;;;;;;;4.15;2.33;;;22.80;45.40;;;;;;5079321;28;20288;-70
2021/06/01 09:55:27;;;;;;;3.35;2.35;;;22.80;45.90;;;;;;5070043;28;20213;-70
2021/06/01 09:57:55;;;;;;;3.67;1.73;;;22.80;46.00;;;;;;5068337;28;20723;-70
2021/06/01 10:00:25;;;;;;;2.58;1.83;;;22.70;46.00;;;;;;5065761;28;20520;-71
2021/06/01 10:02:55;;;;;;;2.63;1.90;;;22.70;45.90;;;;;;5066330;28;20248;-70
2021/06/01 10:05:23;;;;;;;4.20;2.70;;;22.60;46.10;;;;;;5068167;28;20287;-71
2021/06/01 10:07:51;;;;;;;4.57;1.92;;;22.60;46.00;;;;;;5068659;28;20201;-70
2021/06/01 10:10:21;;;;;;;4.00;2.08;;;22.60;46.00;;;;;;5067013;28;20237;-70
2021/06/01 10:12:49;;;;;;;3.65;1.92;;;22.60;46.20;;;;;;5061480;28;20213;-69
2021/06/01 10:15:17;;;;;;;3.45;1.80;;;22.60;46.10;;;;;;5071363;28;20229;-70
2021/06/01 10:17:45;;;;;;;4.55;2.15;;;22.60;46.00;;;;;;5071582;28;20750;-70
2021/06/01 10:20:12;;;;;;;5.32;1.92;;;22.50;46.40;;;;;;5068289;28;20209;-70
2021/06/01 10:22:39;;;;;;;6.03;2.40;;;22.40;46.30;;;;;;5068032;28;20213;-71
2021/06/01 10:25:08;;;;;;;4.32;2.05;;;22.30;46.00;;;;;;5067761;28;20662;-69
2021/06/01 10:27:35;;;;;;;3.03;2.00;;;22.20;46.30;;;;;;5060685;28;20205;-72
2021/06/01 10:30:05;;;;;;;7.18;2.22;;;22.10;46.00;;;;;;5070907;28;20238;-71
2021/06/01 10:32:35;;;;;;;2.30;1.70;;;22.10;46.10;;;;;;5071493;28;20208;-71
2021/06/01 10:35:07;;;;;;;4.10;2.10;;;22.00;46.10;;;;;;5068354;28;20639;-73
2021/06/01 10:43:51;;;;;;;3.72;2.03;;;21.70;46.50;;;;;;5067603;28;20724;-72
2021/06/01 10:52:13;;;;;;;1.60;1.50;;;21.70;46.70;;;;;;5075031;28;20208;-73
2021/06/01 10:55:09;;;;;;;3.67;1.58;;;21.70;46.60;;;;;;5074974;28;20205;-71
2021/06/01 10:58:03;;;;;;;5.20;1.90;;;21.50;46.30;;;;;;5075320;28;20725;-72
2021/06/01 11:03:16;;;;;;;2.53;1.70;;;21.60;46.20;;;;;;5073490;28;20273;-71
2021/06/01 11:06:05;;;;;;;2.22;1.45;;;21.50;45.60;;;;;;5072871;28;20217;-71
2021/06/01 11:08:37;;;;;;;3.47;1.40;;;21.40;45.50;;;;;;5066099;28;20202;-72
2021/06/01 11:11:35;;;;;;;3.45;1.50;;;21.40;45.60;;;;;;5070740;28;20216;-71
2021/06/01 11:14:23;;;;;;;2.85;1.80;;;21.40;45.80;;;;;;4997863;28;20226;-71
2021/06/01 11:16:55;;;;;;;1.55;1.42;;;21.50;46.00;;;;;;5064618;28;20210;-72
2021/06/01 11:19:27;;;;;;;4.93;1.88;;;21.50;46.10;;;;;;5067441;28;20305;-70
2021/06/01 11:22:00;;;;;;;5.57;2.28;;;21.50;46.30;;;;;;5064134;28;20567;-70
2021/06/01 11:33:14;;;;;;;3.38;2.28;;;21.80;48.00;;;;;;5073687;28;20196;-71
2021/06/01 11:35:43;;;;;;;7.03;2.38;;;21.80;48.50;;;;;;5068609;28;20284;-72
2021/06/01 11:38:16;;;;;;;4.43;2.50;;;21.70;48.90;;;;;;5072837;28;21046;-71
2021/06/01 11:41:00;;;;;;;4.97;2.25;;;21.70;49.50;;;;;;5070236;28;20201;-74
2021/06/01 11:43:27;;;;;;;3.15;1.92;;;21.50;50.10;;;;;;5067657;28;20213;-72
2021/06/01 11:46:03;;;;;;;6.10;2.42;;;21.40;50.50;;;;;;5058244;28;20197;-70
2021/06/01 11:51:28;;;;;;;5.60;2.83;;;21.10;51.30;;;;;;5070104;28;20277;-70
2021/06/01 11:53:57;;;;;;;5.05;2.35;;;21.10;51.70;;;;;;5068699;28;20217;-70
2021/06/01 11:56:37;;;;;;;5.65;2.58;;;21.10;51.80;;;;;;5069286;28;20209;-71
2021/06/01 12:02:16;;;;;;;3.03;2.28;;;21.10;51.90;;;;;;5011830;28;20207;-72
2021/06/01 12:05:06;;;;;;;4.28;2.20;;;21.00;51.70;;;;;;5013866;28;20310;-73
2021/06/01 12:18:37;;;;;;;5.80;1.80;;;20.30;50.90;;;;;;5073725;28;20580;-71
2021/06/01 12:21:06;;;;;;;6.20;2.00;;;20.20;51.20;;;;;;5068047;28;20217;-69
2021/06/01 12:23:34;;;;;;;5.80;1.85;;;20.20;51.40;;;;;;5072822;28;20244;-70
2021/06/01 12:26:13;;;;;;;5.40;2.05;;;20.20;51.70;;;;;;5073304;28;20316;-71
2021/06/01 12:32:02;;;;;;;2.83;1.63;;;20.20;51.60;;;;;;5072283;28;20735;-76
2021/06/01 12:34:41;;;;;;;2.95;2.08;;;20.30;52.00;;;;;;5070070;28;20255;-76
2021/06/01 12:42:58;;;;;;;3.00;2.35;;;20.60;51.80;;;;;;5073263;28;20196;-70
2021/06/01 12:45:36;;;;;;;3.47;2.20;;;20.70;51.80;;;;;;5072423;28;20201;-71
2021/06/01 13:14:28;;;;;;;6.35;2.50;;;20.80;50.20;;;;;;5076157;28;20586;-72
2021/06/01 13:19:57;;;;;;;4.72;2.10;;;20.80;50.60;;;;;;5037486;28;20231;-72
2021/06/01 13:22:41;;;;;;;4.07;1.92;;;20.70;50.20;;;;;;5040574;28;20212;-71
2021/06/01 13:31:15;;;;;;;2.33;2.00;;;20.80;50.50;;;;;;5068347;28;21173;-72
2021/06/01 13:36:43;;;;;;;5.57;2.25;;;21.00;49.80;;;;;;5044764;28;20187;-71
2021/06/01 13:39:35;;;;;;;5.28;2.15;;;21.20;49.90;;;;;;5040769;28;20624;-73
2021/06/01 13:47:24;;;;;;;6.70;2.70;;;21.50;49.90;;;;;;5040009;28;20224;-71
2021/06/01 13:49:53;;;;;;;4.85;2.30;;;21.70;49.50;;;;;;5048263;28;20233;-72
2021/06/01 13:52:49;;;;;;;5.32;1.55;;;21.80;49.10;;;;;;5045458;28;20337;-73
2021/06/01 13:55:21;;;;;;;3.10;1.80;;;21.90;48.70;;;;;;5047368;28;20289;-72
2021/06/01 13:58:12;;;;;;;3.10;2.00;;;22.10;48.20;;;;;;5042168;28;20221;-71
2021/06/01 14:00:44;;;;;;;6.65;2.17;;;22.10;47.90;;;;;;5049967;28;20284;-71
2021/06/01 14:36:35;;;;;;;3.05;2.05;;;23.00;45.80;;;;;;5036242;28;20205;-70
2021/06/01 14:39:19;;;;;;;4.70;1.80;;;22.90;45.80;;;;;;5036819;28;20200;-71
2021/06/01 15:04:20;;;;;;;3.55;2.00;;;22.00;47.10;;;;;;5031557;28;20213;-70
2021/06/01 15:10:01;;;;;;;3.50;2.20;;;22.00;47.10;;;;;;5028454;28;20245;-70
2021/06/01 15:29:13;;;;;;;5.88;1.70;;;21.80;47.10;;;;;;4986297;28;20243;-70
2021/06/01 15:31:47;;;;;;;4.43;1.98;;;21.80;47.00;;;;;;5027906;28;20206;-68
2021/06/01 15:48:10;;;;;;;4.13;2.03;;;21.80;46.90;;;;;;5033650;28;20210;-70
2021/06/01 15:50:40;;;;;;;5.60;1.98;;;21.80;47.00;;;;;;5029021;28;20433;-70
2021/06/01 16:21:27;;;;;;;2.58;2.08;;;20.80;49.50;;;;;;5010020;28;20619;-71
2021/06/01 16:32:44;;;;;;;3.45;1.90;;;20.50;49.60;;;;;;5024676;28;20203;-71
2021/06/01 16:43:40;;;;;;;4.03;1.50;;;20.20;49.60;;;;;;5020962;28;20577;-71
2021/06/01 17:03:12;;;;;;;1.80;1.70;;;20.00;49.70;;;;;;5031009;28;20209;-70
2021/06/01 17:05:46;;;;;;;1.83;1.67;;;19.90;49.60;;;;;;5032969;28;20268;-70
2021/06/01 17:08:41;;;;;;;1.58;1.48;;;19.90;49.60;;;;;;5030503;28;20684;-68
2021/06/01 17:11:13;;;;;;;4.35;1.63;;;19.90;49.80;;;;;;5027146;28;20273;-72
2021/06/01 17:13:45;;;;;;;2.92;1.40;;;19.90;49.60;;;;;;5029259;28;20253;-69
2021/06/01 17:16:18;;;;;;;2.60;1.80;;;19.80;49.30;;;;;;5030498;28;20214;-68